createdAt,value
2023-03-11T00:00:28.332Z,1.53
2023-03-11T00:02:57.545Z,1.70
2023-03-11T00:05:27.660Z,1.50
2023-03-11T00:07:55.093Z,1.50
2023-03-11T00:10:32.232Z,1.87
2023-03-11T00:13:00.476Z,1.50
2023-03-11T00:15:29.232Z,1.27
2023-03-11T00:17:56.422Z,1.43
2023-03-11T00:20:29.604Z,1.47
2023-03-11T00:22:57.266Z,1.50
2023-03-11T00:25:26.840Z,1.30
2023-03-11T00:27:54.157Z,1.67
2023-03-11T00:30:22.140Z,1.20
2023-03-11T00:32:51.208Z,1.70
2023-03-11T00:35:23.452Z,1.13
2023-03-11T00:37:54.425Z,1.80
2023-03-11T00:40:22.249Z,1.50
2023-03-11T00:42:49.252Z,1.50
2023-03-11T00:45:17.139Z,1.50
2023-03-11T00:47:44.694Z,1.63
2023-03-11T00:50:20.355Z,1.63
2023-03-11T00:52:48.712Z,1.33
2023-03-11T00:55:19.930Z,1.30
2023-03-11T00:57:47.097Z,1.60
2023-03-11T01:00:17.028Z,1.17
2023-03-11T01:02:44.412Z,1.23
2023-03-11T01:05:12.044Z,1.83
2023-03-11T01:07:40.006Z,1.50
2023-03-11T01:10:08.484Z,1.27
2023-03-11T01:12:35.562Z,1.23
2023-03-11T01:15:03.191Z,1.07
2023-03-11T01:17:30.294Z,1.60
2023-03-11T01:19:57.340Z,1.60
2023-03-11T01:22:24.664Z,1.60
2023-03-11T01:24:51.831Z,1.37
2023-03-11T01:27:18.906Z,1.17
2023-03-11T01:29:45.984Z,1.07
2023-03-11T01:32:13.083Z,1.20
2023-03-11T01:34:40.153Z,1.30
2023-03-11T01:37:07.266Z,1.33
2023-03-11T01:39:34.462Z,1.30
2023-03-11T01:42:01.483Z,1.40
2023-03-11T01:44:29.172Z,1.27
2023-03-11T01:46:59.704Z,1.13
2023-03-11T01:49:31.140Z,1.30
2023-03-11T01:52:03.829Z,1.33
2023-03-11T01:54:35.455Z,1.13
2023-03-11T01:57:07.820Z,1.20
2023-03-11T01:59:39.916Z,1.10
2023-03-11T02:02:32.638Z,0.90
2023-03-11T02:05:02.334Z,1.40
2023-03-11T02:07:29.999Z,1.00
2023-03-11T02:09:57.153Z,1.17
2023-03-11T02:12:25.253Z,1.33
2023-03-11T02:14:54.665Z,1.10
2023-03-11T02:17:22.486Z,1.00
2023-03-11T02:20:02.091Z,1.10
2023-03-11T02:22:33.474Z,1.10
2023-03-11T02:25:47.454Z,1.00
2023-03-11T02:28:16.910Z,1.20
2023-03-11T02:30:44.959Z,0.90
2023-03-11T02:33:14.328Z,1.20
2023-03-11T02:35:42.295Z,1.00
2023-03-11T02:38:10.143Z,1.10
2023-03-11T02:41:02.055Z,1.10
2023-03-11T02:43:40.798Z,1.20
2023-03-11T02:46:11.708Z,0.80
2023-03-11T02:48:39.446Z,0.97
2023-03-11T02:51:06.649Z,1.13
2023-03-11T02:53:49.438Z,1.07
2023-03-11T02:56:16.568Z,1.00
2023-03-11T02:58:43.741Z,1.13
2023-03-11T03:01:11.207Z,1.00
2023-03-11T03:03:40.210Z,0.90
2023-03-11T03:06:07.534Z,1.00
2023-03-11T03:08:34.611Z,1.03
2023-03-11T03:11:03.321Z,1.17
2023-03-11T03:13:32.325Z,0.83
2023-03-11T03:16:00.168Z,1.10
2023-03-11T03:18:27.583Z,1.10
2023-03-11T03:20:55.050Z,1.17
2023-03-11T03:23:22.551Z,1.10
2023-03-11T03:25:49.686Z,1.20
2023-03-11T03:28:16.881Z,0.90
2023-03-11T03:30:46.121Z,1.00
2023-03-11T03:33:14.372Z,1.10
2023-03-11T03:35:43.837Z,1.30
2023-03-11T03:38:17.409Z,1.00
2023-03-11T03:40:48.101Z,1.00
2023-03-11T03:43:18.057Z,1.13
2023-03-11T03:45:54.837Z,0.93
2023-03-11T03:48:22.084Z,1.23
2023-03-11T03:50:49.135Z,1.10
2023-03-11T03:53:19.462Z,0.90
2023-03-11T03:55:46.961Z,1.07
2023-03-11T03:58:14.341Z,1.10
2023-03-11T04:00:43.253Z,1.20
2023-03-11T04:03:10.486Z,0.90
2023-03-11T04:05:47.184Z,1.00
2023-03-11T04:08:14.928Z,1.23
2023-03-11T04:10:42.686Z,1.13
2023-03-11T04:13:10.088Z,1.13
2023-03-11T04:15:40.200Z,1.40
2023-03-11T04:18:07.608Z,1.00
2023-03-11T04:20:34.845Z,0.87
2023-03-11T04:23:01.988Z,1.20
2023-03-11T04:25:29.068Z,1.17
2023-03-11T04:27:56.421Z,1.00
2023-03-11T04:30:24.021Z,1.10
2023-03-11T04:32:55.771Z,1.10
2023-03-11T04:35:23.136Z,1.00
2023-03-11T04:37:50.598Z,1.00
2023-03-11T04:40:18.181Z,1.00
2023-03-11T04:42:45.636Z,1.00
2023-03-11T04:45:13.391Z,0.67
2023-03-11T04:47:42.715Z,0.93
2023-03-11T04:50:10.284Z,0.80
2023-03-11T04:52:37.429Z,0.70
2023-03-11T04:55:04.956Z,1.00
2023-03-11T04:57:33.029Z,1.30
2023-03-11T05:00:00.490Z,1.10
2023-03-11T05:02:28.510Z,1.10
2023-03-11T05:04:59.967Z,0.83
2023-03-11T05:07:27.344Z,1.17
2023-03-11T05:09:55.212Z,1.10
2023-03-11T05:12:22.613Z,1.20
2023-03-11T05:14:52.980Z,1.00
2023-03-11T05:17:21.324Z,1.13
2023-03-11T05:19:50.248Z,1.13
2023-03-11T05:22:22.623Z,1.23
2023-03-11T05:24:50.099Z,1.10
2023-03-11T05:27:21.325Z,1.20
2023-03-11T05:29:52.902Z,0.93
2023-03-11T05:32:21.706Z,0.80
2023-03-11T05:34:49.676Z,1.20
2023-03-11T05:37:17.566Z,1.20
2023-03-11T05:39:46.197Z,1.10
2023-03-11T05:42:14.480Z,1.30
2023-03-11T05:44:42.114Z,1.03
2023-03-11T05:47:09.391Z,1.27
2023-03-11T05:49:36.428Z,1.20
2023-03-11T05:52:03.933Z,1.30
2023-03-11T05:54:32.380Z,1.40
2023-03-11T05:56:59.896Z,1.40
2023-03-11T05:59:27.845Z,1.20
2023-03-11T06:02:00.208Z,1.27
2023-03-11T06:04:27.923Z,1.27
2023-03-11T06:06:55.539Z,1.20
2023-03-11T06:09:24.722Z,1.30
2023-03-11T06:11:53.276Z,0.60
2023-03-11T06:14:23.177Z,1.40
2023-03-11T06:16:51.458Z,1.57
2023-03-11T06:19:20.508Z,1.03
2023-03-11T06:21:50.967Z,1.60
2023-03-11T06:24:19.049Z,1.30
2023-03-11T06:26:52.178Z,1.23
2023-03-11T06:29:24.362Z,1.50
2023-03-11T06:31:51.609Z,1.40
2023-03-11T06:34:18.824Z,1.30
2023-03-11T06:36:46.255Z,1.20
2023-03-11T06:39:15.470Z,1.20
2023-03-11T06:41:45.019Z,1.00
2023-03-11T06:44:13.351Z,0.80
2023-03-11T06:46:41.035Z,0.80
2023-03-11T06:49:08.196Z,0.87
2023-03-11T06:51:36.321Z,1.10
2023-03-11T06:54:04.402Z,0.97
2023-03-11T06:56:32.711Z,1.10
2023-03-11T06:59:04.536Z,1.00
2023-03-11T07:01:33.009Z,1.10
2023-03-11T07:04:02.630Z,0.90
2023-03-11T07:06:30.677Z,1.00
2023-03-11T07:09:12.634Z,0.80
2023-03-11T07:11:43.139Z,1.10
2023-03-11T07:14:14.341Z,1.00
2023-03-11T07:16:45.440Z,0.97
2023-03-11T07:19:23.395Z,0.90
2023-03-11T07:21:51.162Z,1.10
2023-03-11T07:24:18.316Z,0.90
2023-03-11T07:26:45.458Z,1.20
2023-03-11T07:29:12.433Z,0.90
2023-03-11T07:31:39.799Z,1.10
2023-03-11T07:34:11.469Z,1.20
2023-03-11T07:36:41.191Z,1.00
2023-03-11T07:39:11.043Z,1.00
2023-03-11T07:41:38.103Z,1.03
2023-03-11T07:44:05.254Z,1.30
2023-03-11T07:46:33.161Z,1.23
2023-03-11T07:49:02.396Z,1.10
2023-03-11T07:51:31.618Z,1.13
2023-03-11T07:54:00.269Z,1.20
2023-03-11T07:56:30.454Z,1.10
2023-03-11T07:58:59.580Z,0.93
2023-03-11T08:01:30.707Z,1.20
2023-03-11T08:03:58.916Z,1.07
2023-03-11T08:06:31.210Z,1.00
2023-03-11T08:09:02.568Z,1.10
2023-03-11T08:11:31.432Z,1.10
2023-03-11T08:13:59.098Z,1.43
2023-03-11T08:16:26.893Z,1.17
2023-03-11T08:18:54.556Z,1.10
2023-03-11T08:21:26.987Z,1.20
2023-03-11T08:23:58.783Z,1.30
2023-03-11T08:26:26.260Z,1.20
2023-03-11T08:28:54.403Z,1.37
2023-03-11T08:31:27.140Z,1.07
2023-03-11T08:33:58.742Z,1.13
2023-03-11T08:36:25.985Z,1.30
2023-03-11T08:38:53.451Z,1.13
2023-03-11T08:41:20.888Z,1.10
2023-03-11T08:43:48.307Z,1.20
2023-03-11T08:46:28.765Z,1.00
2023-03-11T08:48:58.680Z,1.10
2023-03-11T08:51:27.712Z,0.90
2023-03-11T08:53:54.764Z,1.10
2023-03-11T08:56:21.946Z,1.10
2023-03-11T08:58:50.919Z,1.30
2023-03-11T09:01:18.424Z,1.10
2023-03-11T09:03:45.608Z,1.20
2023-03-11T09:06:15.557Z,1.10
2023-03-11T09:08:44.137Z,1.00
2023-03-11T09:11:13.646Z,1.00
2023-03-11T09:13:41.870Z,1.10
2023-03-11T09:16:23.545Z,1.17
2023-03-11T09:18:50.746Z,1.03
2023-03-11T09:21:18.140Z,1.20
2023-03-11T09:23:45.380Z,1.20
2023-03-11T09:26:13.112Z,1.30
2023-03-11T09:28:41.114Z,1.00
2023-03-11T09:31:08.232Z,1.10
2023-03-11T09:33:40.212Z,1.00
2023-03-11T09:36:08.395Z,0.90
2023-03-11T09:38:35.421Z,1.00
2023-03-11T09:41:17.486Z,1.07
2023-03-11T09:44:00.136Z,0.90
2023-03-11T09:46:51.071Z,0.90
2023-03-11T09:49:33.616Z,0.90
2023-03-11T09:52:30.471Z,1.00
2023-03-11T09:55:00.925Z,1.07
2023-03-11T09:57:38.793Z,0.97
2023-03-11T10:00:08.443Z,0.80
2023-03-11T10:02:41.730Z,0.80
2023-03-11T10:05:26.556Z,1.00
2023-03-11T10:08:04.926Z,0.90
2023-03-11T10:10:39.825Z,0.80
2023-03-11T10:13:37.794Z,0.87
2023-03-11T10:16:11.017Z,0.90
2023-03-11T10:18:53.823Z,0.90
2023-03-11T10:21:35.748Z,0.90
2023-03-11T10:24:45.786Z,0.97
2023-03-11T10:27:33.056Z,0.90
2023-03-11T10:30:14.075Z,0.87
2023-03-11T10:32:49.192Z,0.90
2023-03-11T10:35:27.431Z,0.80
2023-03-11T10:38:14.947Z,0.80
2023-03-11T10:40:44.746Z,0.80
2023-03-11T10:43:33.644Z,0.93
2023-03-11T10:46:04.112Z,0.73
2023-03-11T10:48:31.283Z,0.83
2023-03-11T10:51:22.887Z,0.90
2023-03-11T10:54:01.708Z,0.80
2023-03-11T10:56:31.929Z,1.00
2023-03-11T10:58:59.948Z,0.67
2023-03-11T11:01:29.044Z,1.00
2023-03-11T11:04:00.945Z,1.00
2023-03-11T11:06:37.846Z,0.93
2023-03-11T11:09:19.772Z,1.00
2023-03-11T11:12:15.245Z,1.00
2023-03-11T11:14:51.273Z,0.90
2023-03-11T11:44:53.454Z,0.90
2023-03-11T11:47:34.991Z,0.93
2023-03-11T11:50:06.441Z,1.10
2023-03-11T11:52:45.200Z,1.00
2023-03-11T11:55:18.517Z,0.90
2023-03-11T11:57:46.327Z,0.93
2023-03-11T12:00:31.522Z,1.27
2023-03-11T12:03:17.623Z,1.00
2023-03-11T12:06:10.272Z,1.10
2023-03-11T12:08:51.207Z,1.10
2023-03-11T12:11:52.635Z,1.20
2023-03-11T12:14:37.542Z,1.20
2023-03-11T12:17:05.837Z,0.97
2023-03-11T12:20:11.511Z,0.83
2023-03-11T12:23:12.205Z,1.00
2023-03-11T12:25:42.237Z,0.80
2023-03-11T12:28:51.197Z,0.90
2023-03-11T12:31:18.974Z,0.90
2023-03-11T12:33:54.961Z,1.00
2023-03-11T12:36:35.785Z,1.00
2023-03-11T12:39:07.827Z,0.90
2023-03-11T12:41:42.962Z,1.00
2023-03-11T12:44:22.698Z,1.00
2023-03-11T12:46:59.162Z,1.10
2023-03-11T12:49:32.236Z,0.80
2023-03-11T12:52:11.862Z,0.73
2023-03-11T12:54:40.844Z,1.00
2023-03-11T12:57:31.199Z,0.87
2023-03-11T13:00:12.633Z,1.00
2023-03-11T13:03:09.172Z,0.77
2023-03-11T13:05:52.132Z,0.80
2023-03-11T13:08:30.860Z,1.03
2023-03-11T13:10:58.666Z,1.00
2023-03-11T13:13:35.380Z,1.00
2023-03-11T13:16:15.022Z,0.80
2023-03-11T13:18:44.748Z,0.80
2023-03-11T13:21:30.422Z,0.90
2023-03-11T13:24:30.087Z,1.00
2023-03-11T13:27:01.374Z,1.00
2023-03-11T13:30:06.860Z,0.73
2023-03-11T13:33:15.785Z,0.90
2023-03-11T13:36:01.768Z,1.00
2023-03-11T13:39:16.113Z,0.90
2023-03-11T13:41:44.926Z,1.33
2023-03-11T13:44:24.437Z,0.90
2023-03-11T13:47:03.003Z,0.90
2023-03-11T13:49:37.368Z,1.00
2023-03-11T13:52:09.629Z,1.10
2023-03-11T13:54:53.166Z,0.90
2023-03-11T13:57:49.227Z,0.80
2023-03-11T14:00:24.231Z,0.90
2023-03-11T14:03:04.959Z,1.00
2023-03-11T14:05:35.151Z,0.83
2023-03-11T14:08:27.059Z,1.00
2023-03-11T14:11:04.779Z,1.00
2023-03-11T14:13:38.548Z,1.00
2023-03-11T14:16:19.514Z,0.90
2023-03-11T14:18:49.174Z,1.17
2023-03-11T14:21:21.755Z,1.10
2023-03-11T14:23:51.443Z,0.97
2023-03-11T14:26:28.199Z,1.00
2023-03-11T14:28:59.174Z,1.00
2023-03-11T14:31:35.023Z,1.07
2023-03-11T14:34:13.763Z,1.00
2023-03-11T14:36:44.922Z,1.10
2023-03-11T14:39:32.410Z,0.97
2023-03-11T14:42:19.658Z,0.90
2023-03-11T14:45:10.021Z,1.10
2023-03-11T14:47:52.239Z,0.93
2023-03-11T14:50:25.975Z,1.10
2023-03-11T14:53:05.684Z,0.93
2023-03-11T14:55:40.543Z,1.00
2023-03-11T14:58:16.502Z,1.10
2023-03-11T15:00:50.294Z,1.10
2023-03-11T15:03:32.702Z,1.00
2023-03-11T15:06:09.968Z,1.00
2023-03-11T15:08:44.779Z,1.10
2023-03-11T15:11:12.044Z,0.97
2023-03-11T15:13:42.623Z,1.00
2023-03-11T15:16:35.466Z,1.00
2023-03-11T15:19:29.878Z,1.10
2023-03-11T15:22:22.491Z,1.10
2023-03-11T15:24:55.287Z,1.20
2023-03-11T15:27:37.863Z,1.00
2023-03-11T15:30:36.141Z,0.93
2023-03-11T15:33:21.305Z,1.03
2023-03-11T15:35:49.582Z,1.10
2023-03-11T15:38:25.834Z,1.10
2023-03-11T15:41:03.896Z,0.90
2023-03-11T15:43:33.097Z,1.17
2023-03-11T15:46:03.487Z,1.00
2023-03-11T15:48:31.547Z,0.90
2023-03-11T15:51:00.728Z,1.13
2023-03-11T15:53:29.228Z,1.10
2023-03-11T15:56:06.928Z,1.27
2023-03-11T15:58:37.728Z,1.20
2023-03-11T16:01:05.204Z,1.03
2023-03-11T16:03:32.478Z,1.10
2023-03-11T16:05:59.809Z,1.00
2023-03-11T16:08:27.041Z,1.00
2023-03-11T16:10:54.394Z,1.20
2023-03-11T16:13:21.652Z,1.13
2023-03-11T16:15:49.290Z,1.17
2023-03-11T16:18:16.625Z,0.93
2023-03-11T16:20:52.699Z,1.10
2023-03-11T16:23:23.922Z,1.40
2023-03-11T16:25:53.875Z,1.10
2023-03-11T16:28:21.173Z,0.93
2023-03-11T16:30:50.617Z,1.07
2023-03-11T16:33:18.051Z,1.13
2023-03-11T16:35:46.021Z,0.90
2023-03-11T16:38:13.533Z,1.20
2023-03-11T16:40:40.924Z,1.00
2023-03-11T16:43:11.094Z,0.97
2023-03-11T16:45:38.330Z,0.97
2023-03-11T16:48:06.206Z,1.00
2023-03-11T16:50:34.356Z,1.10
2023-03-11T16:53:03.042Z,1.00
2023-03-11T16:55:30.802Z,0.90
2023-03-11T16:57:58.128Z,1.00
2023-03-11T17:00:26.054Z,1.17
2023-03-11T17:02:53.514Z,1.00
2023-03-11T17:05:21.087Z,1.17
2023-03-11T17:07:48.399Z,1.00
2023-03-11T17:10:15.772Z,1.00
2023-03-11T17:12:42.963Z,1.00
2023-03-11T17:15:10.633Z,1.20
2023-03-11T17:17:37.947Z,1.10
2023-03-11T17:20:07.269Z,1.20
2023-03-11T17:22:34.732Z,1.13
2023-03-11T17:25:02.426Z,1.00
2023-03-11T17:27:32.765Z,1.00
2023-03-11T17:30:04.478Z,1.10
2023-03-11T17:32:32.555Z,1.00
2023-03-11T17:34:59.870Z,1.00
2023-03-11T17:37:27.200Z,0.90
2023-03-11T17:39:54.495Z,1.07
2023-03-11T17:42:22.054Z,1.07
2023-03-11T17:44:52.117Z,0.80
2023-03-11T17:47:20.509Z,1.00
2023-03-11T17:49:49.293Z,1.17
2023-03-11T17:52:16.638Z,1.00
2023-03-11T17:54:44.814Z,0.90
2023-03-11T17:57:12.114Z,1.13
2023-03-11T17:59:39.377Z,1.00
2023-03-11T18:02:07.665Z,1.20
2023-03-11T18:04:35.056Z,1.10
2023-03-11T18:07:02.407Z,0.90
2023-03-11T18:09:29.962Z,1.20
2023-03-11T18:11:57.339Z,0.97
2023-03-11T18:14:24.632Z,1.00
2023-03-11T18:16:51.999Z,1.17
2023-03-11T18:19:19.466Z,1.07
2023-03-11T18:21:46.753Z,1.00
2023-03-11T18:24:14.091Z,0.90
2023-03-11T18:26:41.394Z,0.93
2023-03-11T18:29:08.701Z,1.00
2023-03-11T18:31:36.024Z,1.20
2023-03-11T18:34:05.513Z,1.10
2023-03-11T18:36:36.459Z,1.13
2023-03-11T18:39:05.012Z,1.10
2023-03-11T18:41:35.147Z,1.00
2023-03-11T18:44:03.046Z,0.90
2023-03-11T18:46:32.157Z,0.90
2023-03-11T18:49:01.633Z,1.00
2023-03-11T18:51:31.448Z,1.10
2023-03-11T18:53:59.447Z,0.90
2023-03-11T18:56:27.296Z,0.93
2023-03-11T18:58:56.071Z,1.00
2023-03-11T19:01:23.529Z,1.10
2023-03-11T19:03:55.921Z,1.00
2023-03-11T19:06:24.954Z,1.10
2023-03-11T19:08:52.319Z,1.00
2023-03-11T19:11:21.793Z,0.80
2023-03-11T19:13:49.109Z,1.00
2023-03-11T19:16:19.931Z,1.53
2023-03-11T19:18:48.002Z,1.30
2023-03-11T19:21:17.074Z,1.00
2023-03-11T19:23:45.466Z,0.90
2023-03-11T19:26:13.428Z,1.10
2023-03-11T19:28:40.882Z,1.10
2023-03-11T19:31:08.446Z,1.00
2023-03-11T19:33:35.843Z,1.10
2023-03-11T19:36:06.104Z,1.00
2023-03-11T19:38:33.835Z,0.90
2023-03-11T19:41:14.638Z,1.00
2023-03-11T19:43:42.611Z,1.13
2023-03-11T19:46:13.130Z,1.03
2023-03-11T19:48:40.701Z,1.00
2023-03-11T19:51:08.116Z,1.00
2023-03-11T19:53:36.825Z,1.00
2023-03-11T19:56:05.026Z,1.00
2023-03-11T19:58:32.615Z,1.10
2023-03-11T20:01:00.427Z,1.10
2023-03-11T20:03:28.411Z,1.00
2023-03-11T20:05:58.122Z,1.00
2023-03-11T20:08:26.105Z,1.00
2023-03-11T20:10:54.105Z,1.07
2023-03-11T20:13:23.040Z,1.03
2023-03-11T20:15:50.808Z,1.00
2023-03-11T20:18:18.601Z,0.93
2023-03-11T20:20:47.192Z,1.10
2023-03-11T20:23:14.499Z,1.00
2023-03-11T20:25:42.197Z,1.00
2023-03-11T20:28:10.302Z,3.30
2023-03-11T20:30:38.863Z,1.40
2023-03-11T20:33:07.809Z,1.00
2023-03-11T20:35:35.533Z,1.27
2023-03-11T20:38:03.257Z,1.30
2023-03-11T20:40:31.007Z,1.23
2023-03-11T20:42:58.547Z,1.20
2023-03-11T20:45:25.997Z,1.13
2023-03-11T20:47:54.198Z,1.30
2023-03-11T20:50:22.573Z,1.20
2023-03-11T20:52:50.629Z,1.30
2023-03-11T20:55:18.548Z,1.20
2023-03-11T20:57:46.139Z,1.20
2023-03-11T21:00:14.626Z,1.43
2023-03-11T21:02:43.221Z,1.40
2023-03-11T21:05:11.868Z,1.40
2023-03-11T21:07:39.857Z,1.57
2023-03-11T21:10:10.374Z,1.30
2023-03-11T21:12:38.291Z,1.40
2023-03-11T21:15:07.241Z,1.57
2023-03-11T21:17:35.354Z,1.50
2023-03-11T21:20:05.341Z,1.40
2023-03-11T21:22:33.589Z,1.53
2023-03-11T21:25:01.409Z,1.40
2023-03-11T21:27:29.149Z,1.40
2023-03-11T21:29:57.994Z,1.40
2023-03-11T21:32:27.395Z,1.40
2023-03-11T21:34:59.525Z,1.50
2023-03-11T21:37:28.803Z,1.40
2023-03-11T21:39:56.351Z,1.40
2023-03-11T21:42:23.860Z,1.40
2023-03-11T21:44:51.856Z,1.40
2023-03-11T21:47:19.921Z,1.53
2023-03-11T21:49:47.621Z,1.43
2023-03-11T21:52:15.077Z,1.70
2023-03-11T21:54:42.466Z,1.30
2023-03-11T21:57:11.594Z,1.40
2023-03-11T21:59:39.010Z,1.30
2023-03-11T22:02:06.575Z,1.40
2023-03-11T22:04:34.234Z,1.63
2023-03-11T22:07:01.813Z,1.50
2023-03-11T22:09:29.295Z,1.33
2023-03-11T22:11:56.687Z,1.57
2023-03-11T22:14:24.753Z,1.60
2023-03-11T22:16:52.485Z,1.70
2023-03-11T22:19:20.117Z,1.60
2023-03-11T22:21:48.713Z,1.33
2023-03-11T22:24:16.430Z,1.50
2023-03-11T22:26:43.874Z,1.40
2023-03-11T22:29:13.466Z,1.60
2023-03-11T22:31:41.244Z,1.60
2023-03-11T22:34:08.618Z,1.40
2023-03-11T22:36:35.962Z,1.50
2023-03-11T22:39:04.576Z,1.80
2023-03-11T22:41:32.152Z,1.63
2023-03-11T22:43:59.479Z,1.67
2023-03-11T22:46:27.093Z,1.60
2023-03-11T22:48:54.480Z,1.70
2023-03-11T22:51:21.865Z,2.00
2023-03-11T22:53:49.096Z,1.60
2023-03-11T22:56:18.150Z,1.70
2023-03-11T22:58:46.062Z,1.57
2023-03-11T23:01:13.800Z,1.63
2023-03-11T23:03:43.340Z,1.40
2023-03-11T23:06:13.623Z,1.53
2023-03-11T23:08:41.096Z,1.60
2023-03-11T23:11:11.771Z,1.80
2023-03-11T23:13:39.973Z,1.57
2023-03-11T23:16:13.720Z,1.73
2023-03-11T23:18:43.729Z,1.70
2023-03-11T23:21:24.350Z,1.53
2023-03-11T23:23:52.040Z,1.60
2023-03-11T23:26:20.407Z,1.67
2023-03-11T23:28:48.284Z,1.60
2023-03-11T23:31:16.604Z,1.60
2023-03-11T23:33:44.299Z,1.80
2023-03-11T23:36:14.839Z,1.80
2023-03-11T23:38:42.999Z,1.53
2023-03-11T23:41:13.823Z,1.63
2023-03-11T23:43:41.588Z,1.77
2023-03-11T23:46:10.538Z,1.67
2023-03-11T23:48:38.825Z,1.70
2023-03-11T23:51:08.428Z,1.50
2023-03-11T23:53:36.666Z,1.67
2023-03-11T23:56:09.669Z,1.60
2023-03-11T23:58:36.944Z,1.60
